createdAt,value
2023-05-19T00:00:10.722Z,81.76
2023-05-19T00:01:10.665Z,81.67
2023-05-19T00:02:10.687Z,82.18
2023-05-19T00:03:10.760Z,81.87
2023-05-19T00:04:10.648Z,82.18
2023-05-19T00:05:10.659Z,81.87
2023-05-19T00:06:10.700Z,82.07
2023-05-19T00:07:10.625Z,82.59
2023-05-19T00:08:10.671Z,82.48
2023-05-19T00:09:10.626Z,82.39
2023-05-19T00:10:10.603Z,83.72
2023-05-19T00:11:10.613Z,83.00
2023-05-19T00:12:10.609Z,83.31
2023-05-19T00:13:10.643Z,83.55
2023-05-19T00:14:10.589Z,83.51
2023-05-19T00:15:10.577Z,83.62
2023-05-19T00:16:10.631Z,83.72
2023-05-19T00:17:10.592Z,83.14
2023-05-19T00:18:10.559Z,83.51
2023-05-19T00:19:10.792Z,83.65
2023-05-19T00:20:10.542Z,83.04
2023-05-19T00:21:10.536Z,83.35
2023-05-19T00:22:10.539Z,83.04
2023-05-19T00:23:10.520Z,83.55
2023-05-19T00:24:10.546Z,83.92
2023-05-19T00:25:10.517Z,83.45
2023-05-19T00:26:10.492Z,83.86
2023-05-19T00:27:10.517Z,83.86
2023-05-19T00:28:10.466Z,83.55
2023-05-19T00:29:10.886Z,83.55
2023-05-19T00:30:10.458Z,83.97
2023-05-19T00:31:10.447Z,83.65
2023-05-19T00:32:10.532Z,84.38
2023-05-19T00:33:10.496Z,83.76
2023-05-19T00:34:10.471Z,84.00
2023-05-19T00:35:10.452Z,83.80
2023-05-19T00:36:10.435Z,83.65
2023-05-19T00:37:10.403Z,83.49
2023-05-19T00:38:10.469Z,83.80
2023-05-19T00:39:10.423Z,83.76
2023-05-19T00:40:10.416Z,83.39
2023-05-19T00:41:10.404Z,83.97
2023-05-19T00:42:10.398Z,84.21
2023-05-19T00:43:10.370Z,84.42
2023-05-19T00:44:10.361Z,84.17
2023-05-19T00:45:10.389Z,83.90
2023-05-19T00:46:10.400Z,84.72
2023-05-19T00:47:10.384Z,84.27
2023-05-19T00:48:10.436Z,83.90
2023-05-19T00:49:10.330Z,84.31
2023-05-19T00:50:10.344Z,84.62
2023-05-19T00:51:10.350Z,84.52
2023-05-19T00:52:10.287Z,84.83
2023-05-19T00:53:10.327Z,85.14
2023-05-19T00:54:10.301Z,84.83
2023-05-19T00:55:10.294Z,85.28
2023-05-19T00:56:10.309Z,85.24
2023-05-19T00:57:10.283Z,85.49
2023-05-19T00:58:10.249Z,85.65
2023-05-19T00:59:10.242Z,85.38
2023-05-19T01:00:10.246Z,85.49
2023-05-19T01:01:10.287Z,85.69
2023-05-19T01:02:10.223Z,85.89
2023-05-19T01:03:10.357Z,86.21
2023-05-19T01:04:10.335Z,86.24
2023-05-19T01:05:10.204Z,86.31
2023-05-19T01:06:10.251Z,86.45
2023-05-19T01:07:10.187Z,86.61
2023-05-19T01:08:10.193Z,86.45
2023-05-19T01:09:10.184Z,86.97
2023-05-19T01:10:10.177Z,87.13
2023-05-19T01:11:10.168Z,86.76
2023-05-19T01:12:10.206Z,86.61
2023-05-19T01:13:10.165Z,86.82
2023-05-19T01:14:10.187Z,86.61
2023-05-19T01:15:10.143Z,86.76
2023-05-19T01:16:10.169Z,87.03
2023-05-19T01:17:10.171Z,87.44
2023-05-19T01:18:10.200Z,87.24
2023-05-19T01:19:10.157Z,86.45
2023-05-19T01:20:10.096Z,86.66
2023-05-19T01:21:10.121Z,86.31
2023-05-19T01:22:10.129Z,86.55
2023-05-19T01:23:10.125Z,86.52
2023-05-19T01:24:10.072Z,86.21
2023-05-19T01:25:10.139Z,86.10
2023-05-19T01:26:10.098Z,86.21
2023-05-19T01:27:10.064Z,86.35
2023-05-19T01:28:10.103Z,86.31
2023-05-19T01:29:10.046Z,86.41
2023-05-19T01:30:10.038Z,86.61
2023-05-19T01:31:10.012Z,86.00
2023-05-19T01:32:10.186Z,86.16
2023-05-19T01:33:10.045Z,85.79
2023-05-19T01:34:10.010Z,86.41
2023-05-19T01:35:09.991Z,86.10
2023-05-19T01:36:09.996Z,84.97
2023-05-19T01:37:09.987Z,85.55
2023-05-19T01:38:10.039Z,84.72
2023-05-19T01:39:09.964Z,84.31
2023-05-19T01:40:09.999Z,84.42
2023-05-19T01:41:09.970Z,84.62
2023-05-19T01:42:09.927Z,84.31
2023-05-19T01:43:09.994Z,84.72
2023-05-19T01:44:09.950Z,83.90
2023-05-19T01:45:09.935Z,84.21
2023-05-19T01:46:09.987Z,84.62
2023-05-19T01:47:09.924Z,84.62
2023-05-19T01:48:11.182Z,84.83
2023-05-19T01:49:09.964Z,85.44
2023-05-19T01:50:09.889Z,85.44
2023-05-19T01:51:09.931Z,85.96
2023-05-19T01:52:09.868Z,86.31
2023-05-19T01:53:09.876Z,85.89
2023-05-19T01:54:09.899Z,85.49
2023-05-19T01:55:10.017Z,86.00
2023-05-19T01:56:09.853Z,86.31
2023-05-19T01:57:09.887Z,85.28
2023-05-19T01:58:09.852Z,85.59
2023-05-19T01:59:09.921Z,86.31
2023-05-19T02:00:09.826Z,86.21
2023-05-19T02:01:09.891Z,86.31
2023-05-19T02:02:09.814Z,86.21
2023-05-19T02:03:09.820Z,86.15
2023-05-19T02:04:09.848Z,86.61
2023-05-19T02:05:09.829Z,86.72
2023-05-19T02:06:09.760Z,86.66
2023-05-19T02:07:09.757Z,86.97
2023-05-19T02:08:09.780Z,86.97
2023-05-19T02:09:09.759Z,87.24
2023-05-19T02:10:09.793Z,86.93
2023-05-19T02:11:09.762Z,87.13
2023-05-19T02:12:09.725Z,86.87
2023-05-19T02:13:09.745Z,86.82
2023-05-19T02:14:09.764Z,87.07
2023-05-19T02:15:09.754Z,87.69
2023-05-19T02:16:09.727Z,87.59
2023-05-19T02:17:09.688Z,87.69
2023-05-19T02:18:09.695Z,87.73
2023-05-19T02:19:09.760Z,87.42
2023-05-19T02:20:09.763Z,87.83
2023-05-19T02:21:09.675Z,87.48
2023-05-19T02:22:09.642Z,87.38
2023-05-19T02:23:09.641Z,87.17
2023-05-19T02:24:09.646Z,87.07
2023-05-19T02:25:09.656Z,87.27
2023-05-19T02:26:09.672Z,86.87
2023-05-19T02:27:09.627Z,87.27
2023-05-19T02:28:09.611Z,87.99
2023-05-19T02:29:09.607Z,87.79
2023-05-19T02:30:09.606Z,87.69
2023-05-19T02:31:09.614Z,88.51
2023-05-19T02:32:09.601Z,88.35
2023-05-19T02:33:09.610Z,88.65
2023-05-19T02:34:09.566Z,87.83
2023-05-19T02:35:09.568Z,87.48
2023-05-19T02:36:10.154Z,87.48
2023-05-19T02:37:09.559Z,88.10
2023-05-19T02:38:09.561Z,88.41
2023-05-19T02:39:09.549Z,88.65
2023-05-19T02:40:09.516Z,89.03
2023-05-19T02:41:09.526Z,88.45
2023-05-19T02:42:09.583Z,88.14
2023-05-19T02:43:09.493Z,87.83
2023-05-19T02:44:09.643Z,87.83
2023-05-19T02:45:09.498Z,88.20
2023-05-19T02:46:09.529Z,88.45
2023-05-19T02:47:09.531Z,87.93
2023-05-19T02:48:09.554Z,87.52
2023-05-19T02:49:09.467Z,86.97
2023-05-19T02:50:09.478Z,87.32
2023-05-19T02:51:09.445Z,87.93
2023-05-19T02:52:09.466Z,87.73
2023-05-19T02:53:09.475Z,88.10
2023-05-19T02:54:09.435Z,88.14
2023-05-19T02:55:09.466Z,88.35
2023-05-19T02:56:09.425Z,88.35
2023-05-19T02:57:09.393Z,88.04
2023-05-19T02:58:09.474Z,87.83
2023-05-19T02:59:09.384Z,87.93
2023-05-19T03:00:09.400Z,87.56
2023-05-19T03:01:09.407Z,87.01
2023-05-19T03:02:09.477Z,87.63
2023-05-19T03:03:09.490Z,88.04
2023-05-19T03:04:09.550Z,88.56
2023-05-19T03:05:09.347Z,88.35
2023-05-19T03:06:09.381Z,88.49
2023-05-19T03:07:09.338Z,88.86
2023-05-19T03:08:09.397Z,88.80
2023-05-19T03:09:09.327Z,88.39
2023-05-19T03:10:09.301Z,88.65
2023-05-19T03:11:09.313Z,88.49
2023-05-19T03:12:09.311Z,87.83
2023-05-19T03:13:09.286Z,87.87
2023-05-19T03:14:09.350Z,87.63
2023-05-19T03:15:09.285Z,87.73
2023-05-19T03:16:09.304Z,87.42
2023-05-19T03:17:09.319Z,87.21
2023-05-19T03:18:09.264Z,86.45
2023-05-19T03:19:09.337Z,86.24
2023-05-19T03:20:09.228Z,86.87
2023-05-19T03:21:09.209Z,87.93
2023-05-19T03:22:09.232Z,87.52
2023-05-19T03:23:09.252Z,87.63
2023-05-19T03:24:09.228Z,87.42
2023-05-19T03:25:09.215Z,87.42
2023-05-19T03:26:09.208Z,87.01
2023-05-19T03:27:09.200Z,87.32
2023-05-19T03:28:09.186Z,87.42
2023-05-19T03:29:09.240Z,87.73
2023-05-19T03:30:09.185Z,87.77
2023-05-19T03:31:09.172Z,88.35
2023-05-19T03:32:09.177Z,88.59
2023-05-19T03:33:09.203Z,89.17
2023-05-19T03:34:09.153Z,88.39
2023-05-19T03:35:09.202Z,88.90
2023-05-19T03:36:09.132Z,89.01
2023-05-19T03:37:09.140Z,89.73
2023-05-19T03:38:09.110Z,89.11
2023-05-19T03:39:09.114Z,88.59
2023-05-19T03:40:09.159Z,88.53
2023-05-19T03:41:09.103Z,87.98
2023-05-19T03:42:09.123Z,88.90
2023-05-19T03:43:09.097Z,88.08
2023-05-19T03:44:09.086Z,88.39
2023-05-19T03:45:09.132Z,88.39
2023-05-19T03:46:09.110Z,88.80
2023-05-19T03:47:09.054Z,88.18
2023-05-19T03:48:09.098Z,88.29
2023-05-19T03:49:09.070Z,88.39
2023-05-19T03:50:09.011Z,88.39
2023-05-19T03:51:09.090Z,88.59
2023-05-19T03:52:08.995Z,88.39
2023-05-19T03:53:09.010Z,88.49
2023-05-19T03:54:09.036Z,87.87
2023-05-19T03:55:09.000Z,87.66
2023-05-19T03:56:09.029Z,88.29
2023-05-19T03:57:08.969Z,88.39
2023-05-19T03:58:08.979Z,88.39
2023-05-19T03:59:08.974Z,89.01
2023-05-19T04:00:08.936Z,88.59
2023-05-19T04:01:09.007Z,88.18
2023-05-19T04:02:08.969Z,87.66
2023-05-19T04:03:09.064Z,87.87
2023-05-19T04:04:08.977Z,87.77
2023-05-19T04:05:08.943Z,88.49
2023-05-19T04:06:08.929Z,87.98
2023-05-19T04:07:08.948Z,87.77
2023-05-19T04:08:08.916Z,87.66
2023-05-19T04:09:08.931Z,88.70
2023-05-19T04:10:08.895Z,88.39
2023-05-19T04:11:08.890Z,88.39
2023-05-19T04:12:08.932Z,88.59
2023-05-19T04:13:08.873Z,88.29
2023-05-19T04:14:08.865Z,88.29
2023-05-19T04:15:09.048Z,87.98
2023-05-19T04:16:08.875Z,87.87
2023-05-19T04:17:08.869Z,88.24
2023-05-19T04:18:08.846Z,87.87
2023-05-19T04:19:08.882Z,87.46
2023-05-19T04:20:08.807Z,87.32
2023-05-19T04:21:08.846Z,87.83
2023-05-19T04:22:08.815Z,87.26
2023-05-19T04:23:08.854Z,87.52
2023-05-19T04:24:08.779Z,87.32
2023-05-19T04:25:08.761Z,86.90
2023-05-19T04:26:08.749Z,86.80
2023-05-19T04:27:08.789Z,87.11
2023-05-19T04:28:08.771Z,87.21
2023-05-19T04:29:08.789Z,86.60
2023-05-19T04:30:08.753Z,86.60
2023-05-19T04:31:08.789Z,87.01
2023-05-19T04:32:08.737Z,87.01
2023-05-19T04:33:08.767Z,86.90
2023-05-19T04:34:08.732Z,87.42
2023-05-19T04:35:08.775Z,86.49
2023-05-19T04:36:08.722Z,86.49
2023-05-19T04:37:08.693Z,86.55
2023-05-19T04:38:08.682Z,86.76
2023-05-19T04:39:08.665Z,86.76
2023-05-19T04:40:08.674Z,87.38
2023-05-19T04:41:08.947Z,86.76
2023-05-19T04:42:08.629Z,86.55
2023-05-19T04:43:08.652Z,86.45
2023-05-19T04:44:08.657Z,86.87
2023-05-19T04:45:08.629Z,86.61
2023-05-19T04:46:09.557Z,86.76
2023-05-19T04:47:08.844Z,86.10
2023-05-19T04:48:08.630Z,85.69
2023-05-19T04:49:08.625Z,86.00
2023-05-19T04:50:08.585Z,85.69
2023-05-19T04:51:08.577Z,85.59
2023-05-19T04:52:08.596Z,85.94
2023-05-19T04:53:08.626Z,84.87
2023-05-19T04:54:08.571Z,84.14
2023-05-19T04:55:08.573Z,84.00
2023-05-19T04:56:08.552Z,83.70
2023-05-19T04:57:08.542Z,83.18
2023-05-19T04:58:08.580Z,83.63
2023-05-19T04:59:08.571Z,84.11
2023-05-19T05:00:08.553Z,83.39
2023-05-19T05:01:08.531Z,83.80
2023-05-19T05:02:08.569Z,83.70
2023-05-19T05:03:08.588Z,84.42
2023-05-19T05:04:08.586Z,83.80
2023-05-19T05:05:08.605Z,84.00
2023-05-19T05:06:08.506Z,83.86
2023-05-19T05:07:08.447Z,82.83
2023-05-19T05:08:08.470Z,83.65
2023-05-19T05:09:08.508Z,82.01
2023-05-19T05:10:08.448Z,82.18
2023-05-19T05:11:08.491Z,81.76
2023-05-19T05:12:08.441Z,81.56
2023-05-19T05:13:09.581Z,81.70
2023-05-19T05:14:08.425Z,81.56
2023-05-19T05:15:08.417Z,81.67
2023-05-19T05:16:08.476Z,81.67
2023-05-19T05:17:08.444Z,80.80
2023-05-19T05:18:08.403Z,80.70
2023-05-19T05:19:08.411Z,80.91
2023-05-19T05:20:08.431Z,79.98
2023-05-19T05:21:08.385Z,80.19
2023-05-19T05:22:08.387Z,80.05
2023-05-19T05:23:08.415Z,79.94
2023-05-19T05:24:08.344Z,79.94
2023-05-19T05:25:08.354Z,79.84
2023-05-19T05:26:08.351Z,79.53
2023-05-19T05:27:08.410Z,79.74
2023-05-19T05:28:08.329Z,79.33
2023-05-19T05:29:08.376Z,78.92
2023-05-19T05:30:08.302Z,79.08
2023-05-19T05:31:08.356Z,78.88
2023-05-19T05:32:08.344Z,78.57
2023-05-19T05:33:08.358Z,79.08
2023-05-19T05:34:08.269Z,78.47
2023-05-19T05:35:08.304Z,78.43
2023-05-19T05:36:08.261Z,77.51
2023-05-19T05:37:08.273Z,77.68
2023-05-19T05:38:08.237Z,77.71
2023-05-19T05:39:08.266Z,77.10
2023-05-19T05:40:08.251Z,77.30
2023-05-19T05:41:08.475Z,77.26
2023-05-19T05:42:08.223Z,77.37
2023-05-19T05:43:08.229Z,77.06
2023-05-19T05:44:08.195Z,76.14
2023-05-19T05:45:08.191Z,76.82
2023-05-19T05:46:08.266Z,76.31
2023-05-19T05:47:08.217Z,76.41
2023-05-19T05:48:08.213Z,76.37
2023-05-19T05:49:08.158Z,76.00
2023-05-19T05:50:08.138Z,75.59
2023-05-19T05:51:08.152Z,75.86
2023-05-19T05:52:08.110Z,75.56
2023-05-19T05:53:08.179Z,75.93
2023-05-19T05:54:08.108Z,75.79
2023-05-19T05:55:08.107Z,74.77
2023-05-19T05:56:08.113Z,75.79
2023-05-19T05:57:08.113Z,74.77
2023-05-19T05:58:08.078Z,73.44
2023-05-19T05:59:08.100Z,74.80
2023-05-19T06:00:08.135Z,74.60
2023-05-19T06:01:08.081Z,74.90
2023-05-19T06:02:08.092Z,74.97
2023-05-19T06:03:08.257Z,74.87
2023-05-19T06:04:08.053Z,73.64
2023-05-19T06:05:08.112Z,73.91
2023-05-19T06:06:08.031Z,73.20
2023-05-19T06:07:08.041Z,73.44
2023-05-19T06:08:08.003Z,73.40
2023-05-19T06:09:08.012Z,73.10
2023-05-19T06:10:07.985Z,73.50
2023-05-19T06:11:08.049Z,73.61
2023-05-19T06:12:08.036Z,73.71
2023-05-19T06:13:07.995Z,74.32
2023-05-19T06:14:07.973Z,73.20
2023-05-19T06:15:08.036Z,73.50
2023-05-19T06:16:08.119Z,73.20
2023-05-19T06:17:08.059Z,72.45
2023-05-19T06:18:07.992Z,72.11
2023-05-19T06:19:08.054Z,72.11
2023-05-19T06:20:08.014Z,71.80
2023-05-19T06:21:07.935Z,71.46
2023-05-19T06:22:07.909Z,71.56
2023-05-19T06:23:08.001Z,71.46
2023-05-19T06:24:07.892Z,70.40
2023-05-19T06:25:07.903Z,70.00
2023-05-19T06:26:07.914Z,70.00
2023-05-19T06:27:07.918Z,70.37
2023-05-19T06:28:07.891Z,69.96
2023-05-19T06:29:07.912Z,69.56
2023-05-19T06:30:07.930Z,69.56
2023-05-19T06:31:07.908Z,69.32
2023-05-19T06:32:07.892Z,69.45
2023-05-19T06:33:07.878Z,69.35
2023-05-19T06:34:07.854Z,69.01
2023-05-19T06:35:07.897Z,69.59
2023-05-19T06:36:07.832Z,68.06
2023-05-19T06:37:07.829Z,67.07
2023-05-19T06:38:07.786Z,68.80
2023-05-19T06:39:07.832Z,69.21
2023-05-19T06:40:07.835Z,69.11
2023-05-19T06:41:07.857Z,68.47
2023-05-19T06:42:07.794Z,67.76
2023-05-19T06:43:07.768Z,69.38
2023-05-19T06:44:07.771Z,68.26
2023-05-19T06:45:07.755Z,68.37
2023-05-19T06:46:07.791Z,68.13
2023-05-19T06:47:07.944Z,67.72
2023-05-19T06:48:07.787Z,67.32
2023-05-19T06:49:07.776Z,67.41
2023-05-19T06:50:07.734Z,67.82
2023-05-19T06:51:07.748Z,68.64
2023-05-19T06:52:07.712Z,68.33
2023-05-19T06:53:07.774Z,66.97
2023-05-19T06:54:07.704Z,67.69
2023-05-19T06:55:07.688Z,67.15
2023-05-19T06:56:07.714Z,66.44
2023-05-19T06:57:07.747Z,65.49
2023-05-19T06:58:07.951Z,64.67
2023-05-19T06:59:07.718Z,64.06
2023-05-19T07:00:07.649Z,63.90
2023-05-19T07:01:07.851Z,63.01
2023-05-19T07:02:07.700Z,64.34
2023-05-19T07:03:07.652Z,63.80
2023-05-19T07:04:07.742Z,64.00
2023-05-19T07:05:07.648Z,64.00
2023-05-19T07:06:08.464Z,63.70
2023-05-19T07:07:07.616Z,63.87
2023-05-19T07:08:07.580Z,63.06
2023-05-19T07:09:07.582Z,62.32
2023-05-19T07:10:07.545Z,62.24
2023-05-19T07:11:07.612Z,61.10
2023-05-19T07:12:07.542Z,61.88
2023-05-19T07:13:07.526Z,61.78
2023-05-19T07:14:07.515Z,60.49
2023-05-19T07:15:07.537Z,61.57
2023-05-19T07:16:07.679Z,60.63
2023-05-19T07:17:07.549Z,60.43
2023-05-19T07:18:07.563Z,60.33
2023-05-19T07:19:07.525Z,60.94
2023-05-19T07:20:07.504Z,60.50
2023-05-19T07:21:07.458Z,59.48
2023-05-19T07:22:07.484Z,59.86
2023-05-19T07:23:07.510Z,59.36
2023-05-19T07:24:07.475Z,59.74
2023-05-19T07:25:07.486Z,58.95
2023-05-19T07:26:07.472Z,58.92
2023-05-19T07:27:07.437Z,58.11
2023-05-19T07:28:07.425Z,58.49
2023-05-19T07:29:07.452Z,57.88
2023-05-19T07:30:07.426Z,57.58
2023-05-19T07:31:07.417Z,56.87
2023-05-19T07:32:07.434Z,57.17
2023-05-19T07:33:07.430Z,56.67
2023-05-19T07:34:07.394Z,56.52
2023-05-19T07:35:07.435Z,56.82
2023-05-19T07:36:07.375Z,57.10
2023-05-19T07:37:07.358Z,57.33
2023-05-19T07:38:07.372Z,57.91
2023-05-19T07:39:07.479Z,57.10
2023-05-19T07:40:07.332Z,57.91
2023-05-19T07:41:07.410Z,56.29
2023-05-19T07:42:07.357Z,56.49
2023-05-19T07:43:07.323Z,55.88
2023-05-19T07:44:07.340Z,56.49
2023-05-19T07:45:07.266Z,56.49
2023-05-19T07:46:07.339Z,55.98
2023-05-19T07:47:07.541Z,54.97
2023-05-19T07:48:07.331Z,56.26
2023-05-19T07:49:07.297Z,55.85
2023-05-19T07:50:07.307Z,55.83
2023-05-19T07:51:07.293Z,55.76
2023-05-19T07:52:07.279Z,55.35
2023-05-19T07:53:07.322Z,55.55
2023-05-19T07:54:07.249Z,56.16
2023-05-19T07:55:07.260Z,56.13
2023-05-19T07:56:07.249Z,54.33
2023-05-19T07:57:07.229Z,55.63
2023-05-19T07:58:07.235Z,52.99
2023-05-19T07:59:07.280Z,54.71
2023-05-19T08:00:07.215Z,54.21
2023-05-19T08:01:07.212Z,53.98
2023-05-19T08:02:07.278Z,54.49
2023-05-19T08:03:07.319Z,53.14
2023-05-19T08:04:08.521Z,53.55
2023-05-19T08:05:07.273Z,53.42
2023-05-19T08:06:07.170Z,53.14
2023-05-19T08:07:07.162Z,54.36
2023-05-19T08:08:07.176Z,53.14
2023-05-19T08:09:07.149Z,52.54
2023-05-19T08:10:07.139Z,52.54
2023-05-19T08:11:07.172Z,52.94
2023-05-19T08:12:07.126Z,52.99
2023-05-19T08:13:07.149Z,52.39
2023-05-19T08:14:07.132Z,52.59
2023-05-19T08:15:07.112Z,52.39
2023-05-19T08:16:07.176Z,51.70
2023-05-19T08:17:07.144Z,52.03
2023-05-19T08:18:07.142Z,52.23
2023-05-19T08:19:07.106Z,52.54
2023-05-19T08:20:07.053Z,52.31
2023-05-19T08:21:07.079Z,51.90
2023-05-19T08:22:07.139Z,53.22
2023-05-19T08:23:07.066Z,52.48
2023-05-19T08:24:07.061Z,51.76
2023-05-19T08:25:07.040Z,52.56
2023-05-19T08:26:07.037Z,51.60
2023-05-19T08:27:07.086Z,51.70
2023-05-19T08:28:07.034Z,52.28
2023-05-19T08:29:07.016Z,52.76
2023-05-19T08:30:07.000Z,51.32
2023-05-19T08:31:07.010Z,49.91
2023-05-19T08:32:06.994Z,50.72
2023-05-19T08:33:07.038Z,50.29
2023-05-19T08:34:06.983Z,52.29
2023-05-19T08:35:06.985Z,49.96
2023-05-19T08:36:06.977Z,52.19
2023-05-19T08:37:07.042Z,50.04
2023-05-19T08:38:06.996Z,49.92
2023-05-19T08:39:06.917Z,49.37
2023-05-19T08:40:06.941Z,49.67
2023-05-19T08:41:06.922Z,49.62
2023-05-19T08:42:06.898Z,49.99
2023-05-19T08:43:06.979Z,48.16
2023-05-19T08:44:06.904Z,48.03
2023-05-19T08:45:06.896Z,48.54
2023-05-19T08:46:06.977Z,46.62
2023-05-19T08:47:06.934Z,47.86
2023-05-19T08:48:06.921Z,47.98
2023-05-19T08:49:06.906Z,48.28
2023-05-19T08:50:06.860Z,49.39
2023-05-19T08:51:06.833Z,49.09
2023-05-19T08:52:06.834Z,47.78
2023-05-19T08:53:09.422Z,48.28
2023-05-19T08:54:07.870Z,46.77
2023-05-19T08:55:06.825Z,47.58
2023-05-19T08:56:06.814Z,46.67
2023-05-19T08:57:06.770Z,47.75
2023-05-19T08:58:06.781Z,48.36
2023-05-19T08:59:06.852Z,47.67
2023-05-19T09:00:06.779Z,48.41
2023-05-19T09:01:06.808Z,49.49
2023-05-19T09:02:06.770Z,48.34
2023-05-19T09:04:06.844Z,46.97
2023-05-19T09:05:06.813Z,48.14
2023-05-19T09:06:06.755Z,48.21
2023-05-19T09:07:06.732Z,46.70
2023-05-19T09:08:06.708Z,45.70
2023-05-19T09:09:06.683Z,45.19
2023-05-19T09:10:06.743Z,46.22
2023-05-19T09:11:06.709Z,46.45
2023-05-19T09:12:06.696Z,47.15
2023-05-19T09:13:06.679Z,46.95
2023-05-19T09:14:06.713Z,47.13
2023-05-19T09:15:06.713Z,46.18
2023-05-19T09:16:06.708Z,45.90
2023-05-19T09:17:06.724Z,47.28
2023-05-19T09:18:06.702Z,45.27
2023-05-19T09:19:06.658Z,45.50
2023-05-19T09:20:06.688Z,44.92
2023-05-19T09:21:06.653Z,46.50
2023-05-19T09:22:06.736Z,45.17
2023-05-19T09:23:06.628Z,46.10
2023-05-19T09:24:06.686Z,45.37
2023-05-19T09:25:06.567Z,46.28
2023-05-19T09:26:06.706Z,46.28
2023-05-19T09:27:06.553Z,46.68
2023-05-19T09:28:06.576Z,47.51
2023-05-19T09:29:06.597Z,48.52
2023-05-19T09:30:06.593Z,48.52
2023-05-19T09:31:06.702Z,47.39
2023-05-19T09:32:06.602Z,46.26
2023-05-19T09:33:06.659Z,46.34
2023-05-19T09:34:06.634Z,46.44
2023-05-19T09:35:06.686Z,43.92
2023-05-19T09:36:06.554Z,44.32
2023-05-19T09:37:06.691Z,46.22
2023-05-19T09:38:06.508Z,45.09
2023-05-19T09:39:06.504Z,45.91
2023-05-19T09:40:06.487Z,45.26
2023-05-19T09:41:06.488Z,45.21
2023-05-19T09:42:06.538Z,45.43
2023-05-19T09:43:06.451Z,46.84
2023-05-19T09:44:06.464Z,47.22
2023-05-19T09:45:06.428Z,43.48
2023-05-19T09:46:06.651Z,43.70
2023-05-19T09:47:06.440Z,44.96
2023-05-19T09:48:06.535Z,43.86
2023-05-19T09:49:06.402Z,45.99
2023-05-19T09:50:06.432Z,44.34
2023-05-19T09:51:06.518Z,43.78
2023-05-19T09:52:06.509Z,45.37
2023-05-19T09:53:06.436Z,44.34
2023-05-19T09:54:06.382Z,43.32
2023-05-19T09:55:06.382Z,43.30
2023-05-19T09:56:06.376Z,43.48
2023-05-19T09:57:08.418Z,42.99
2023-05-19T09:58:06.393Z,41.91
2023-05-19T09:59:06.372Z,41.69
2023-05-19T10:00:06.344Z,42.32
2023-05-19T10:01:06.412Z,42.46
2023-05-19T10:02:06.309Z,43.66
2023-05-19T10:03:06.385Z,44.22
2023-05-19T10:04:06.430Z,42.60
2023-05-19T10:05:06.366Z,43.54
2023-05-19T10:06:06.316Z,43.82
2023-05-19T10:07:06.338Z,42.11
2023-05-19T10:08:06.287Z,44.64
2023-05-19T10:09:06.317Z,42.61
2023-05-19T10:10:06.272Z,42.66
2023-05-19T10:11:06.264Z,42.03
2023-05-19T10:12:06.230Z,40.75
2023-05-19T10:13:06.279Z,41.91
2023-05-19T10:14:06.272Z,43.48
2023-05-19T10:15:06.211Z,43.94
2023-05-19T10:16:06.263Z,42.69
2023-05-19T10:17:06.239Z,43.58
2023-05-19T10:18:06.248Z,42.35
2023-05-19T10:19:06.250Z,41.03
2023-05-19T10:20:06.187Z,42.43
2023-05-19T10:21:06.175Z,41.75
2023-05-19T10:22:06.168Z,43.66
2023-05-19T10:23:06.172Z,42.68
2023-05-19T10:24:06.173Z,42.55
2023-05-19T10:25:06.233Z,42.16
2023-05-19T10:26:06.136Z,42.33
2023-05-19T10:27:06.142Z,42.61
2023-05-19T10:28:06.109Z,42.16
2023-05-19T10:29:06.183Z,42.93
2023-05-19T10:30:06.113Z,41.89
2023-05-19T10:31:06.114Z,41.69
2023-05-19T10:32:06.189Z,41.31
2023-05-19T10:33:06.121Z,40.99
2023-05-19T10:34:06.091Z,42.27
2023-05-19T10:35:06.108Z,43.66
2023-05-19T10:36:06.072Z,43.29
2023-05-19T10:37:06.070Z,40.97
2023-05-19T10:38:06.073Z,42.29
2023-05-19T10:39:06.053Z,41.61
2023-05-19T10:40:06.107Z,41.02
2023-05-19T10:41:06.054Z,41.53
2023-05-19T10:42:06.014Z,41.66
2023-05-19T10:43:06.043Z,41.88
2023-05-19T10:44:06.015Z,42.43
2023-05-19T10:45:06.072Z,40.93
2023-05-19T10:46:06.036Z,41.11
2023-05-19T10:47:06.020Z,41.27
2023-05-19T10:48:06.005Z,40.93
2023-05-19T10:49:05.986Z,43.21
2023-05-19T10:50:06.014Z,41.77
2023-05-19T10:51:06.188Z,40.64
2023-05-19T10:52:05.964Z,41.02
2023-05-19T10:53:05.972Z,42.52
2023-05-19T10:54:05.956Z,42.32
2023-05-19T10:55:05.923Z,42.05
2023-05-19T10:56:05.972Z,44.28
2023-05-19T10:57:05.927Z,45.18
2023-05-19T10:58:05.922Z,45.95
2023-05-19T10:59:05.952Z,43.46
2023-05-19T11:00:05.926Z,42.33
2023-05-19T11:01:05.945Z,42.69
2023-05-19T11:02:05.908Z,43.55
2023-05-19T11:03:05.962Z,41.09
2023-05-19T11:04:05.895Z,41.49
2023-05-19T11:05:05.881Z,40.56
2023-05-19T11:06:05.895Z,38.76
2023-05-19T11:07:05.857Z,40.97
2023-05-19T11:08:05.827Z,40.92
2023-05-19T11:09:05.867Z,37.98
2023-05-19T11:10:05.885Z,38.87
2023-05-19T11:11:05.886Z,40.72
2023-05-19T11:12:05.793Z,38.78
2023-05-19T11:13:06.477Z,41.39
2023-05-19T11:14:05.847Z,39.84
2023-05-19T11:15:05.841Z,38.90
2023-05-19T11:16:05.822Z,38.17
2023-05-19T11:17:05.902Z,38.73
2023-05-19T11:18:05.833Z,35.86
2023-05-19T11:19:05.814Z,36.31
2023-05-19T11:20:05.793Z,39.76
2023-05-19T11:21:05.824Z,39.00
2023-05-19T11:22:05.754Z,42.25
2023-05-19T11:23:05.761Z,40.71
2023-05-19T11:24:05.842Z,39.65
2023-05-19T11:25:05.734Z,41.24
2023-05-19T11:26:05.725Z,38.40
2023-05-19T11:27:05.756Z,38.27
2023-05-19T11:28:05.696Z,40.00
2023-05-19T11:29:05.691Z,36.65
2023-05-19T11:30:05.693Z,37.59
2023-05-19T11:31:05.728Z,37.23
2023-05-19T11:32:05.739Z,36.04
2023-05-19T11:33:05.818Z,36.42
2023-05-19T11:34:05.644Z,35.74
2023-05-19T11:35:05.654Z,38.07
2023-05-19T11:36:05.642Z,38.07
2023-05-19T11:37:05.653Z,37.19
2023-05-19T11:38:05.677Z,38.73
2023-05-19T11:39:05.674Z,37.40
2023-05-19T11:40:05.710Z,36.97
2023-05-19T11:41:05.663Z,38.04
2023-05-19T11:42:05.620Z,41.25
2023-05-19T11:43:05.611Z,38.70
2023-05-19T11:44:05.571Z,41.06
2023-05-19T11:45:05.660Z,37.67
2023-05-19T11:46:05.597Z,36.80
2023-05-19T11:47:05.554Z,39.51
2023-05-19T11:48:05.647Z,41.09
2023-05-19T11:49:05.553Z,39.89
2023-05-19T11:50:05.612Z,40.36
2023-05-19T11:51:05.492Z,40.01
2023-05-19T11:52:05.576Z,39.62
2023-05-19T11:53:05.527Z,38.90
2023-05-19T11:54:06.723Z,40.64
2023-05-19T11:55:05.480Z,37.49
2023-05-19T11:56:06.600Z,37.15
2023-05-19T11:57:05.500Z,37.25
2023-05-19T11:58:05.982Z,37.02
2023-05-19T11:59:05.560Z,36.34
2023-05-19T12:00:05.485Z,38.56
2023-05-19T12:01:05.459Z,38.72
2023-05-19T12:02:05.511Z,39.26
2023-05-19T12:03:05.615Z,39.14
2023-05-19T12:04:05.587Z,38.59
2023-05-19T12:05:05.547Z,39.62
2023-05-19T12:06:05.434Z,37.93
2023-05-19T12:07:05.413Z,37.63
2023-05-19T12:08:05.414Z,38.76
2023-05-19T12:09:05.388Z,42.21
2023-05-19T12:10:05.433Z,42.13
2023-05-19T12:11:05.440Z,43.04
2023-05-19T12:12:05.400Z,44.24
2023-05-19T12:13:05.374Z,43.48
2023-05-19T12:14:05.410Z,41.09
2023-05-19T12:15:05.459Z,40.58
2023-05-19T12:16:05.398Z,41.30
2023-05-19T12:17:05.331Z,41.53
2023-05-19T12:18:05.413Z,41.11
2023-05-19T12:19:05.359Z,40.50
2023-05-19T12:20:05.354Z,43.12
2023-05-19T12:21:05.318Z,43.24
2023-05-19T12:22:05.309Z,42.82
2023-05-19T12:23:05.287Z,39.50
2023-05-19T12:24:05.298Z,41.80
2023-05-19T12:25:05.328Z,41.71
2023-05-19T12:26:05.317Z,42.83
2023-05-19T12:27:05.329Z,42.76
2023-05-19T12:28:05.347Z,42.72
2023-05-19T12:29:05.301Z,43.34
2023-05-19T12:30:05.250Z,43.06
2023-05-19T12:31:05.333Z,42.76
2023-05-19T12:32:05.272Z,43.28
2023-05-19T12:33:05.218Z,44.10
2023-05-19T12:34:05.281Z,41.83
2023-05-19T12:35:05.193Z,42.16
2023-05-19T12:36:05.238Z,42.76
2023-05-19T12:37:05.233Z,42.44
2023-05-19T12:38:05.281Z,42.24
2023-05-19T12:39:05.151Z,40.56
2023-05-19T12:40:05.199Z,39.68
2023-05-19T12:41:05.138Z,37.25
2023-05-19T12:42:05.192Z,36.77
2023-05-19T12:43:05.176Z,36.77
2023-05-19T12:44:05.205Z,37.73
2023-05-19T12:45:05.154Z,37.92
2023-05-19T12:46:05.207Z,38.94
2023-05-19T12:47:05.181Z,38.91
2023-05-19T12:48:05.150Z,41.27
2023-05-19T12:49:05.113Z,41.02
2023-05-19T12:50:05.135Z,39.64
2023-05-19T12:51:05.136Z,39.48
2023-05-19T12:52:09.213Z,40.71
2023-05-19T12:53:06.090Z,41.15